Time;durP1;ratioP1;P1;durP2;ratioP2;P2;SDS_P1;SDS_P2;PMS_P1;PMS_P2;Temp;Humidity;BMP_temperature;BMP_pressure;BME280_temperature;BME280_humidity;BME280_pressure;Samples;Min_cycle;Max_cycle;Signal;HPM_P1;HPM_P2
2024/03/06 00:00:15;;;;;;;25.38;20.65;;;8.90;99.90;;;;;;4988547;28;20045;-88
2024/03/06 00:02:41;;;;;;;27.23;20.98;;;8.90;99.90;;;;;;4996229;28;20035;-88
2024/03/06 00:05:07;;;;;;;24.05;19.42;;;8.90;99.90;;;;;;5035173;28;20022;-88
2024/03/06 00:07:33;;;;;;;26.85;20.20;;;8.80;99.90;;;;;;5009071;28;20053;-84
2024/03/06 00:09:59;;;;;;;26.52;20.98;;;8.80;99.90;;;;;;5014596;28;20034;-85
2024/03/06 00:12:24;;;;;;;27.02;20.42;;;8.80;99.90;;;;;;5003355;28;20035;-87
2024/03/06 00:14:50;;;;;;;26.63;21.23;;;8.80;99.90;;;;;;4994082;28;20142;-88
2024/03/06 00:17:16;;;;;;;28.58;21.10;;;8.70;99.90;;;;;;4997250;28;20046;-88
2024/03/06 00:19:42;;;;;;;28.70;21.38;;;8.70;99.90;;;;;;4970075;28;21186;-88
2024/03/06 00:22:09;;;;;;;27.15;21.02;;;8.70;99.90;;;;;;5000616;28;20026;-88
2024/03/06 00:24:35;;;;;;;26.70;20.52;;;8.70;99.90;;;;;;4987199;28;20018;-88
2024/03/06 00:27:01;;;;;;;25.75;20.75;;;8.70;99.90;;;;;;5016631;28;20034;-88
2024/03/06 00:29:27;;;;;;;28.05;20.75;;;8.60;99.90;;;;;;4992904;28;20018;-87
2024/03/06 00:31:53;;;;;;;28.60;21.65;;;8.60;99.90;;;;;;4991120;28;20033;-89
2024/03/06 00:34:20;;;;;;;27.33;20.98;;;8.50;99.90;;;;;;4996647;28;20485;-84
2024/03/06 00:36:45;;;;;;;26.17;20.30;;;8.50;99.90;;;;;;4993296;28;20425;-88
2024/03/06 00:39:14;;;;;;;24.20;19.35;;;8.50;99.90;;;;;;4997032;28;20022;-88
2024/03/06 00:41:40;;;;;;;24.40;19.00;;;8.40;99.90;;;;;;5016007;28;20029;-88
2024/03/06 00:44:06;;;;;;;24.17;19.55;;;8.40;99.90;;;;;;5012005;28;20019;-87
2024/03/06 00:46:32;;;;;;;24.38;19.83;;;8.30;99.90;;;;;;4990099;28;20030;-89
2024/03/06 00:48:57;;;;;;;27.20;20.42;;;8.30;99.90;;;;;;4984120;28;20022;-89
2024/03/06 00:51:23;;;;;;;26.55;20.20;;;8.20;99.90;;;;;;5009482;28;20023;-87
2024/03/06 00:53:49;;;;;;;25.75;19.33;;;8.20;99.90;;;;;;4964344;28;20125;-89
2024/03/06 00:56:14;;;;;;;26.25;20.45;;;8.20;99.90;;;;;;5016558;28;20049;-88
2024/03/06 00:58:40;;;;;;;29.95;21.80;;;8.10;99.90;;;;;;5015622;28;20030;-89
2024/03/06 01:01:06;;;;;;;27.77;22.08;;;8.10;99.90;;;;;;5017110;28;20429;-88
2024/03/06 01:03:32;;;;;;;28.67;22.23;;;8.10;99.90;;;;;;4977654;28;20466;-88
2024/03/06 01:06:01;;;;;;;28.40;21.95;;;8.00;99.90;;;;;;5011284;28;20033;-89
2024/03/06 01:08:26;;;;;;;28.73;21.38;;;8.00;99.90;;;;;;5014845;28;20029;-89
2024/03/06 01:10:52;;;;;;;28.13;21.65;;;8.00;99.90;;;;;;5006389;28;20026;-88
2024/03/06 01:13:19;;;;;;;28.33;21.77;;;7.90;99.90;;;;;;4983394;28;20741;-88
2024/03/06 01:15:45;;;;;;;24.88;20.63;;;7.90;99.90;;;;;;4994866;28;20031;-90
2024/03/06 01:18:10;;;;;;;28.23;21.70;;;7.80;99.90;;;;;;4999125;28;20062;-88
2024/03/06 01:20:36;;;;;;;27.10;21.75;;;7.80;99.90;;;;;;4999347;28;20485;-87
2024/03/06 01:23:03;;;;;;;25.17;20.05;;;7.80;99.90;;;;;;4995272;28;20070;-87
2024/03/06 01:25:28;;;;;;;26.02;20.23;;;7.80;99.90;;;;;;5020679;28;20053;-87
2024/03/06 01:27:54;;;;;;;28.08;21.05;;;7.70;99.90;;;;;;5020697;28;20010;-89
2024/03/06 01:30:20;;;;;;;24.83;20.00;;;7.70;99.90;;;;;;5002202;28;20046;-87
2024/03/06 01:32:46;;;;;;;27.02;20.90;;;7.70;99.90;;;;;;5028001;28;20025;-85
2024/03/06 01:35:14;;;;;;;28.98;21.48;;;7.60;99.90;;;;;;5012433;28;20031;-87
2024/03/06 01:37:40;;;;;;;24.98;20.60;;;7.60;99.90;;;;;;4982616;28;20037;-88
2024/03/06 01:40:07;;;;;;;25.38;20.17;;;7.60;99.90;;;;;;4999610;28;20125;-88
2024/03/06 01:42:33;;;;;;;26.17;20.90;;;7.50;99.90;;;;;;5005254;28;20045;-88
2024/03/06 01:44:59;;;;;;;23.25;19.13;;;7.50;99.90;;;;;;5012120;28;20030;-88
2024/03/06 01:47:24;;;;;;;26.15;19.60;;;7.50;99.90;;;;;;5007483;28;20034;-88
2024/03/06 01:49:50;;;;;;;25.17;19.83;;;7.40;99.90;;;;;;4989601;28;20023;-88
2024/03/06 01:52:18;;;;;;;26.90;19.52;;;7.40;99.90;;;;;;5019321;28;20093;-89
2024/03/06 01:54:44;;;;;;;24.90;18.17;;;7.40;99.90;;;;;;5030762;28;20022;-88
2024/03/06 01:57:13;;;;;;;25.35;20.30;;;7.30;99.90;;;;;;5015062;28;20060;-89
2024/03/06 01:59:39;;;;;;;27.90;20.55;;;7.30;99.90;;;;;;5032331;28;20034;-88
2024/03/06 02:02:07;;;;;;;25.80;20.13;;;7.30;99.90;;;;;;5046472;28;20041;-87
2024/03/06 02:04:33;;;;;;;25.88;20.42;;;7.20;99.90;;;;;;5013893;28;20030;-89
2024/03/06 02:06:59;;;;;;;25.88;19.98;;;7.10;99.90;;;;;;4998348;28;20015;-88
2024/03/06 02:09:25;;;;;;;27.00;19.80;;;7.10;99.90;;;;;;4979757;28;20019;-89
2024/03/06 02:11:50;;;;;;;26.33;20.45;;;7.10;99.90;;;;;;5009784;28;20022;-88
2024/03/06 02:14:16;;;;;;;24.05;19.40;;;7.00;99.90;;;;;;4984280;28;20031;-88
2024/03/06 02:16:42;;;;;;;26.38;20.85;;;7.00;99.90;;;;;;4987401;28;20392;-88
2024/03/06 02:19:08;;;;;;;25.02;19.83;;;7.00;99.90;;;;;;4995036;28;20062;-88
2024/03/06 02:21:34;;;;;;;25.90;19.80;;;7.00;99.90;;;;;;4994470;28;20037;-87
2024/03/06 02:24:00;;;;;;;25.10;19.52;;;6.90;99.90;;;;;;4980961;28;20026;-88
2024/03/06 02:26:26;;;;;;;24.60;19.00;;;6.80;99.90;;;;;;4992258;28;20029;-88
2024/03/06 02:28:53;;;;;;;23.02;18.73;;;6.90;99.90;;;;;;4978931;28;20030;-88
2024/03/06 02:31:20;;;;;;;24.73;18.83;;;6.80;99.90;;;;;;4994960;28;20057;-88
2024/03/06 02:33:47;;;;;;;24.80;19.15;;;6.80;99.90;;;;;;4993075;28;20022;-88
2024/03/06 02:36:14;;;;;;;27.98;19.05;;;6.80;99.90;;;;;;4976632;28;20026;-87
2024/03/06 02:38:40;;;;;;;25.70;19.20;;;6.70;99.90;;;;;;4997583;28;20030;-87
2024/03/06 02:41:06;;;;;;;24.55;19.20;;;6.70;99.90;;;;;;5008566;28;20077;-88
2024/03/06 02:43:33;;;;;;;25.70;19.42;;;6.60;99.90;;;;;;5014149;28;20478;-88
2024/03/06 02:45:59;;;;;;;22.35;18.70;;;6.60;99.90;;;;;;5010341;28;20034;-89
2024/03/06 02:48:24;;;;;;;23.30;18.58;;;6.60;99.90;;;;;;4998096;28;20080;-88
2024/03/06 02:50:50;;;;;;;23.70;18.73;;;6.50;99.90;;;;;;4997716;28;20116;-88
2024/03/06 02:53:16;;;;;;;26.58;19.40;;;6.50;99.90;;;;;;4998200;28;20037;-87
2024/03/06 02:55:41;;;;;;;22.63;18.40;;;6.50;99.90;;;;;;5009256;28;20043;-86
2024/03/06 02:58:07;;;;;;;23.90;18.55;;;6.50;99.90;;;;;;5041253;28;20031;-87
2024/03/06 03:00:33;;;;;;;24.35;18.55;;;6.50;99.90;;;;;;5022845;28;20011;-83
2024/03/06 03:02:58;;;;;;;24.00;19.25;;;6.40;99.90;;;;;;5016443;28;20033;-83
2024/03/06 03:05:24;;;;;;;24.05;18.70;;;6.40;99.90;;;;;;5000795;28;20044;-88
2024/03/06 03:07:50;;;;;;;22.48;18.50;;;6.40;99.90;;;;;;5035450;28;20086;-88
2024/03/06 03:10:16;;;;;;;27.75;21.50;;;6.40;99.90;;;;;;5025123;28;20033;-88
2024/03/06 03:12:42;;;;;;;25.75;20.23;;;6.40;99.90;;;;;;4996793;28;20433;-87
2024/03/06 03:15:11;;;;;;;26.75;20.33;;;6.30;99.90;;;;;;5018509;28;20069;-89
2024/03/06 03:17:37;;;;;;;25.70;19.38;;;6.30;99.90;;;;;;5027540;28;20038;-85
2024/03/06 03:20:10;;;;;;;26.05;20.25;;;6.30;99.90;;;;;;4969016;28;20060;-88
2024/03/06 03:22:40;;;;;;;26.02;20.17;;;6.20;99.90;;;;;;4998457;28;20038;-88
2024/03/06 03:25:10;;;;;;;26.35;20.02;;;6.20;99.90;;;;;;4993636;28;20034;-89
2024/03/06 03:27:37;;;;;;;25.67;20.13;;;6.20;99.90;;;;;;4994026;28;20483;-88
2024/03/06 03:30:03;;;;;;;25.60;19.55;;;6.20;99.90;;;;;;4995334;28;20037;-88
2024/03/06 03:32:28;;;;;;;23.65;19.20;;;6.20;99.90;;;;;;5013200;28;20026;-88
2024/03/06 03:34:54;;;;;;;28.20;19.23;;;6.10;99.90;;;;;;4978929;28;20037;-87
2024/03/06 03:37:20;;;;;;;26.05;19.63;;;6.10;99.90;;;;;;5013165;28;20386;-88
2024/03/06 03:39:45;;;;;;;26.45;19.63;;;6.10;99.90;;;;;;5006944;28;20026;-89
2024/03/06 03:42:11;;;;;;;26.05;19.40;;;6.10;99.90;;;;;;4980744;28;20336;-88
2024/03/06 03:44:37;;;;;;;26.67;20.83;;;6.10;99.90;;;;;;4996939;28;20033;-88
2024/03/06 03:47:03;;;;;;;26.90;20.73;;;6.10;99.90;;;;;;4993263;28;20113;-88
2024/03/06 03:49:28;;;;;;;25.83;20.55;;;6.10;99.90;;;;;;4998412;28;20021;-87
2024/03/06 03:51:54;;;;;;;25.80;20.10;;;6.10;99.90;;;;;;4997166;28;20129;-88
2024/03/06 03:54:20;;;;;;;28.38;21.67;;;6.10;99.90;;;;;;5017118;28;20375;-88
2024/03/06 03:56:45;;;;;;;28.55;21.10;;;6.10;99.90;;;;;;4985367;28;20096;-89
2024/03/06 03:59:11;;;;;;;27.88;21.23;;;6.10;99.90;;;;;;5000905;28;20030;-88
2024/03/06 04:01:37;;;;;;;28.23;21.60;;;6.10;99.90;;;;;;4984714;28;20125;-88
2024/03/06 04:04:03;;;;;;;27.30;20.80;;;6.10;99.90;;;;;;5000972;28;20060;-89
2024/03/06 04:06:29;;;;;;;25.25;19.75;;;6.10;99.90;;;;;;5017283;28;20018;-88
2024/03/06 04:08:54;;;;;;;26.63;20.42;;;6.00;99.90;;;;;;5001242;28;20030;-88
2024/03/06 04:11:20;;;;;;;26.90;20.73;;;6.00;99.90;;;;;;5000969;28;20482;-88
2024/03/06 04:13:46;;;;;;;27.83;21.27;;;6.00;99.90;;;;;;5017550;28;20056;-90
2024/03/06 04:16:16;;;;;;;28.23;20.92;;;6.10;99.90;;;;;;5001338;28;20486;-89
2024/03/06 04:18:42;;;;;;;28.75;21.55;;;6.10;99.90;;;;;;5018148;28;20045;-89
2024/03/06 04:21:09;;;;;;;29.33;20.58;;;6.10;99.90;;;;;;5039176;28;20014;-89
2024/03/06 04:23:35;;;;;;;27.63;21.20;;;6.10;99.90;;;;;;5024514;28;20006;-83
2024/03/06 04:26:01;;;;;;;28.60;20.77;;;6.10;99.90;;;;;;5023353;28;20030;-85
2024/03/06 04:28:26;;;;;;;29.55;20.45;;;6.10;99.90;;;;;;5028583;28;20045;-89
2024/03/06 04:30:52;;;;;;;25.33;19.65;;;6.00;99.90;;;;;;5000988;28;20133;-88
2024/03/06 04:33:17;;;;;;;26.15;19.48;;;6.00;99.90;;;;;;5018196;28;20030;-90
2024/03/06 04:35:43;;;;;;;27.23;19.65;;;6.00;99.90;;;;;;5016828;28;20038;-88
2024/03/06 04:38:09;;;;;;;26.70;21.13;;;6.00;99.90;;;;;;5000271;28;20029;-88
2024/03/06 04:40:35;;;;;;;25.55;18.98;;;5.90;99.90;;;;;;4984117;28;20470;-87
2024/03/06 04:43:01;;;;;;;23.42;18.80;;;5.90;99.90;;;;;;5000175;28;20022;-87
2024/03/06 04:45:28;;;;;;;25.00;19.65;;;5.90;99.90;;;;;;5016482;28;20030;-88
2024/03/06 04:47:54;;;;;;;25.13;19.30;;;5.90;99.90;;;;;;5016674;28;20029;-87
2024/03/06 04:50:20;;;;;;;23.85;18.83;;;5.90;99.90;;;;;;5016549;28;20116;-88
2024/03/06 04:52:46;;;;;;;21.30;17.23;;;5.90;99.90;;;;;;5000208;28;20045;-88
2024/03/06 04:55:12;;;;;;;21.38;17.60;;;5.80;99.90;;;;;;4983781;28;20026;-88
2024/03/06 04:57:40;;;;;;;24.05;18.65;;;5.80;99.90;;;;;;4984346;28;20068;-87
2024/03/06 05:00:08;;;;;;;21.08;17.67;;;5.80;99.90;;;;;;5017340;28;20058;-90
2024/03/06 05:02:35;;;;;;;24.27;17.73;;;5.80;99.90;;;;;;5017489;28;20030;-88
2024/03/06 05:05:02;;;;;;;21.23;17.38;;;5.80;99.90;;;;;;5014953;28;20026;-88
2024/03/06 05:07:31;;;;;;;23.33;18.33;;;5.80;99.90;;;;;;5017326;28;20029;-88
2024/03/06 05:09:58;;;;;;;21.98;18.40;;;5.70;99.90;;;;;;5016155;28;20033;-89
2024/03/06 05:12:24;;;;;;;22.58;18.05;;;5.70;99.90;;;;;;5016007;28;20055;-89
2024/03/06 05:14:54;;;;;;;26.13;18.25;;;5.80;99.90;;;;;;5016198;28;20116;-89
2024/03/06 05:17:20;;;;;;;26.65;19.35;;;5.80;99.90;;;;;;5017614;28;20042;-89
2024/03/06 05:19:48;;;;;;;26.08;19.17;;;5.70;99.90;;;;;;5016220;28;20034;-91
2024/03/06 05:22:15;;;;;;;23.70;16.83;;;5.60;99.90;;;;;;5018391;28;20037;-90
2024/03/06 05:24:41;;;;;;;19.48;17.15;;;5.70;99.90;;;;;;5016259;28;20029;-89
2024/03/06 05:27:06;;;;;;;20.98;16.58;;;5.70;99.90;;;;;;4999884;28;20034;-88
2024/03/06 05:29:33;;;;;;;19.27;16.10;;;5.70;99.90;;;;;;5016111;28;20129;-88
2024/03/06 05:31:58;;;;;;;21.20;15.45;;;5.60;99.90;;;;;;5015822;28;20045;-88
2024/03/06 05:34:24;;;;;;;17.52;15.63;;;5.60;99.90;;;;;;4999623;28;20026;-88
2024/03/06 05:36:50;;;;;;;17.65;15.73;;;5.60;99.90;;;;;;4980545;28;20034;-89
2024/03/06 05:39:17;;;;;;;18.33;14.95;;;5.60;99.90;;;;;;5014257;28;20073;-87
2024/03/06 05:41:43;;;;;;;19.38;14.55;;;5.60;99.90;;;;;;5015405;28;20026;-88
2024/03/06 05:44:10;;;;;;;16.23;14.50;;;5.60;99.90;;;;;;5029945;28;20026;-86
2024/03/06 05:46:36;;;;;;;20.00;14.57;;;5.50;99.90;;;;;;5024920;28;20065;-84
2024/03/06 05:49:03;;;;;;;19.60;14.50;;;5.50;99.90;;;;;;5030215;28;20062;-88
2024/03/06 05:51:28;;;;;;;18.60;14.30;;;5.50;99.90;;;;;;5017245;28;20449;-90
2024/03/06 05:53:54;;;;;;;15.52;13.93;;;5.40;99.90;;;;;;5026883;28;20061;-90
2024/03/06 05:56:20;;;;;;;16.48;14.73;;;5.40;99.90;;;;;;5005702;28;20030;-89
2024/03/06 05:58:46;;;;;;;15.98;14.32;;;5.40;99.90;;;;;;4995075;28;20038;-91
2024/03/06 06:01:18;;;;;;;16.77;14.13;;;5.40;99.90;;;;;;5010050;28;20153;-89
2024/03/06 06:03:44;;;;;;;21.80;15.02;;;5.40;99.90;;;;;;4992276;28;20040;-92
2024/03/06 06:06:10;;;;;;;16.00;14.40;;;5.40;99.90;;;;;;5002304;28;20030;-90
2024/03/06 06:08:36;;;;;;;18.25;14.18;;;5.40;99.90;;;;;;5002178;28;20022;-91
2024/03/06 06:11:04;;;;;;;15.30;13.70;;;5.40;99.90;;;;;;4987469;28;20057;-90
2024/03/06 06:13:30;;;;;;;16.10;14.18;;;5.40;99.90;;;;;;4991569;28;20103;-87
2024/03/06 06:15:58;;;;;;;16.80;14.40;;;5.40;99.90;;;;;;5000901;28;20050;-92
2024/03/06 06:18:24;;;;;;;17.63;14.10;;;5.40;99.90;;;;;;4998058;28;20053;-91
2024/03/06 06:20:49;;;;;;;18.90;13.77;;;5.40;99.90;;;;;;5015141;28;20040;-91
2024/03/06 06:23:15;;;;;;;14.38;12.90;;;5.40;99.90;;;;;;5037388;28;20025;-93
2024/03/06 06:25:41;;;;;;;15.02;12.90;;;5.40;99.90;;;;;;4983274;28;20053;-91
2024/03/06 06:28:06;;;;;;;16.55;13.13;;;5.40;99.90;;;;;;4996400;28;20027;-92
2024/03/06 06:30:32;;;;;;;15.85;13.40;;;5.50;99.90;;;;;;4998802;28;20064;-92
2024/03/06 06:32:58;;;;;;;19.92;12.95;;;5.40;99.90;;;;;;4998049;28;20026;-90
2024/03/06 06:35:25;;;;;;;16.90;13.57;;;5.50;99.90;;;;;;4981011;28;20475;-93
2024/03/06 06:37:50;;;;;;;14.13;12.63;;;5.50;99.90;;;;;;5010625;28;20092;-92
2024/03/06 06:40:16;;;;;;;14.77;12.00;;;5.40;99.90;;;;;;5028265;28;20025;-93
2024/03/06 06:42:51;;;;;;;17.17;13.20;;;5.50;99.90;;;;;;4999448;28;20030;-91
2024/03/06 06:45:18;;;;;;;31.35;14.38;;;5.50;99.90;;;;;;4996344;28;20030;-91
2024/03/06 06:47:44;;;;;;;22.90;15.77;;;5.50;99.90;;;;;;5000974;28;20024;-93
2024/03/06 06:50:11;;;;;;;25.27;15.55;;;5.50;99.90;;;;;;5015682;28;20025;-94
2024/03/06 06:52:37;;;;;;;25.20;15.43;;;5.50;99.90;;;;;;5016024;28;20018;-91
2024/03/06 06:55:04;;;;;;;19.95;15.60;;;5.50;99.90;;;;;;4999068;28;20040;-92
2024/03/06 06:57:30;;;;;;;25.88;15.40;;;5.60;99.90;;;;;;4995888;28;20042;-92
2024/03/06 06:59:55;;;;;;;22.55;15.48;;;5.60;99.90;;;;;;5012916;28;20124;-92
2024/03/06 07:02:21;;;;;;;24.98;16.35;;;5.60;99.90;;;;;;5018385;28;20159;-90
2024/03/06 07:04:48;;;;;;;27.45;16.40;;;5.70;99.90;;;;;;5037202;28;20076;-92
2024/03/06 07:07:14;;;;;;;21.05;16.70;;;5.70;99.90;;;;;;5057047;28;20044;-91
2024/03/06 07:09:40;;;;;;;45.17;19.23;;;5.80;99.90;;;;;;5024718;28;20030;-91
2024/03/06 07:12:07;;;;;;;32.13;19.77;;;5.90;99.90;;;;;;5057211;28;20036;-87
2024/03/06 07:14:33;;;;;;;27.75;19.73;;;5.90;99.90;;;;;;5009147;28;20035;-90
2024/03/06 07:16:59;;;;;;;31.98;20.38;;;5.90;99.90;;;;;;5018152;28;20033;-91
2024/03/06 07:19:24;;;;;;;37.53;21.25;;;5.90;99.90;;;;;;5018007;28;20105;-91
2024/03/06 07:21:50;;;;;;;31.42;22.17;;;6.00;99.90;;;;;;5018425;28;20124;-91
2024/03/06 07:24:16;;;;;;;29.55;21.55;;;6.00;99.90;;;;;;5017409;28;20060;-91
2024/03/06 07:26:42;;;;;;;45.15;23.35;;;6.10;99.90;;;;;;5000446;28;20112;-90
2024/03/06 07:29:14;;;;;;;40.22;22.92;;;6.10;99.90;;;;;;5035018;28;20034;-90
2024/03/06 07:31:41;;;;;;;35.22;23.85;;;6.20;99.90;;;;;;5019568;28;20094;-90
2024/03/06 07:34:08;;;;;;;53.63;23.45;;;6.20;99.90;;;;;;5035263;28;20442;-87
2024/03/06 07:36:35;;;;;;;37.95;24.10;;;6.30;99.90;;;;;;5001806;28;20053;-89
2024/03/06 07:39:04;;;;;;;31.98;22.10;;;6.30;99.90;;;;;;5036834;28;20033;-90
2024/03/06 07:41:32;;;;;;;34.55;23.02;;;6.40;99.90;;;;;;5046665;28;20060;-91
2024/03/06 07:43:59;;;;;;;40.75;23.60;;;6.40;99.90;;;;;;5021792;28;20049;-89
2024/03/06 07:46:25;;;;;;;34.00;23.73;;;6.50;99.90;;;;;;5035013;28;20045;-91
2024/03/06 07:48:51;;;;;;;37.47;25.13;;;6.50;99.90;;;;;;5017499;28;20057;-91
2024/03/06 07:51:17;;;;;;;42.05;24.50;;;6.60;99.90;;;;;;5033618;28;20466;-90
2024/03/06 07:53:43;;;;;;;35.28;23.90;;;6.70;99.90;;;;;;5017174;28;20029;-92
2024/03/06 07:56:12;;;;;;;41.58;25.23;;;6.70;99.90;;;;;;5035095;28;20025;-87
2024/03/06 07:58:37;;;;;;;42.60;23.40;;;6.80;99.90;;;;;;5035331;28;20107;-91
2024/03/06 08:01:06;;;;;;;36.83;25.17;;;6.80;99.90;;;;;;5033914;28;20025;-91
2024/03/06 08:03:33;;;;;;;41.40;25.17;;;6.90;99.90;;;;;;5033795;28;20025;-92
2024/03/06 08:06:00;;;;;;;46.15;25.88;;;7.00;99.90;;;;;;5017812;28;20029;-93
2024/03/06 08:08:26;;;;;;;40.65;27.65;;;7.00;99.90;;;;;;5034155;28;20028;-90
2024/03/06 08:10:51;;;;;;;37.20;25.25;;;7.00;99.90;;;;;;5017050;28;20097;-88
2024/03/06 08:13:19;;;;;;;40.22;26.23;;;7.10;99.90;;;;;;5033511;28;20030;-92
2024/03/06 08:15:45;;;;;;;41.45;28.05;;;7.20;99.90;;;;;;5033190;28;20033;-89
2024/03/06 08:18:14;;;;;;;41.17;27.35;;;7.30;99.90;;;;;;5033921;28;20060;-89
2024/03/06 08:20:40;;;;;;;43.33;27.73;;;7.30;99.90;;;;;;5034607;28;20029;-90
2024/03/06 08:23:07;;;;;;;45.35;28.00;;;7.40;99.90;;;;;;5037999;28;20087;-90
2024/03/06 08:25:33;;;;;;;41.05;27.30;;;7.40;99.90;;;;;;5035512;28;20026;-91
2024/03/06 08:27:59;;;;;;;40.47;28.25;;;7.50;99.90;;;;;;5022636;28;20025;-93
2024/03/06 08:30:25;;;;;;;37.80;27.65;;;7.50;99.90;;;;;;5052783;28;20045;-89
2024/03/06 08:32:51;;;;;;;42.17;27.50;;;7.60;99.90;;;;;;5056810;28;20014;-91
2024/03/06 08:35:19;;;;;;;48.35;28.42;;;7.70;99.90;;;;;;5056602;28;20026;-87
2024/03/06 08:37:45;;;;;;;41.67;28.23;;;7.70;99.90;;;;;;5056135;28;20022;-91
2024/03/06 08:40:20;;;;;;;43.17;28.10;;;7.70;99.90;;;;;;5059437;28;20040;-89
2024/03/06 08:42:47;;;;;;;41.15;28.20;;;7.60;99.90;;;;;;5027594;28;20072;-89
2024/03/06 08:45:14;;;;;;;46.72;27.25;;;7.60;99.90;;;;;;4997606;28;20410;-89
2024/03/06 08:47:40;;;;;;;40.28;28.25;;;7.70;99.90;;;;;;4997816;28;20023;-90
2024/03/06 08:50:09;;;;;;;38.25;26.08;;;7.70;99.90;;;;;;5010704;28;20054;-90
2024/03/06 08:52:36;;;;;;;45.72;29.30;;;7.70;99.90;;;;;;5009049;28;20026;-89
2024/03/06 08:55:04;;;;;;;41.45;29.08;;;7.80;99.90;;;;;;5003817;28;20021;-90
2024/03/06 08:57:31;;;;;;;42.25;28.98;;;7.80;99.90;;;;;;4986559;28;20041;-90
2024/03/06 08:59:57;;;;;;;49.65;28.58;;;7.80;99.90;;;;;;5036840;28;20025;-93
2024/03/06 09:02:23;;;;;;;38.72;28.30;;;7.90;99.90;;;;;;5006419;28;20029;-90
2024/03/06 09:04:51;;;;;;;41.60;27.75;;;7.90;99.90;;;;;;5016889;28;20022;-90
2024/03/06 09:07:17;;;;;;;45.58;30.67;;;8.00;99.90;;;;;;5016600;28;20014;-88
2024/03/06 09:09:43;;;;;;;38.50;26.10;;;8.00;99.90;;;;;;5017042;28;20033;-92
2024/03/06 09:12:13;;;;;;;43.28;28.90;;;8.00;99.90;;;;;;5017095;28;20049;-90
2024/03/06 09:14:39;;;;;;;43.17;30.45;;;8.00;99.90;;;;;;5016673;28;20500;-91
2024/03/06 09:17:05;;;;;;;39.42;27.48;;;8.10;99.90;;;;;;5025675;28;20046;-89
2024/03/06 09:19:32;;;;;;;42.10;29.75;;;8.10;99.90;;;;;;5016489;28;20026;-91
2024/03/06 09:21:58;;;;;;;42.45;30.27;;;8.20;99.90;;;;;;5025360;28;20029;-92
2024/03/06 09:24:25;;;;;;;38.03;27.63;;;8.20;99.90;;;;;;4983148;28;20029;-90
2024/03/06 09:26:52;;;;;;;38.53;27.35;;;8.20;99.90;;;;;;4996977;28;20021;-90
2024/03/06 09:29:18;;;;;;;37.63;26.23;;;8.20;99.90;;;;;;4997168;28;20077;-91
2024/03/06 09:31:44;;;;;;;40.60;27.52;;;8.30;99.90;;;;;;4995140;28;20023;-90
2024/03/06 09:34:12;;;;;;;35.95;27.02;;;8.30;99.90;;;;;;4996774;28;20118;-91
2024/03/06 09:36:44;;;;;;;40.20;28.25;;;8.40;99.90;;;;;;4997676;28;20041;-93
2024/03/06 09:39:11;;;;;;;39.67;28.20;;;8.40;99.90;;;;;;5016125;28;20037;-90
2024/03/06 09:41:39;;;;;;;38.60;27.77;;;8.40;99.90;;;;;;5018224;28;20057;-90
2024/03/06 09:44:05;;;;;;;37.13;26.73;;;8.50;99.90;;;;;;5002916;28;20058;-91
2024/03/06 09:46:30;;;;;;;37.90;27.65;;;8.50;99.90;;;;;;4985129;28;20034;-90
2024/03/06 09:48:56;;;;;;;40.70;27.67;;;8.60;99.90;;;;;;5005748;28;20061;-90
2024/03/06 09:51:22;;;;;;;36.10;26.38;;;8.60;99.90;;;;;;5013945;28;20121;-88
2024/03/06 09:53:51;;;;;;;34.95;26.10;;;8.70;99.90;;;;;;5002150;28;20030;-90
2024/03/06 09:56:19;;;;;;;36.47;27.40;;;8.70;99.90;;;;;;5040950;28;20005;-90
2024/03/06 09:58:45;;;;;;;39.85;27.98;;;8.70;99.90;;;;;;5053929;28;20083;-89
2024/03/06 10:01:13;;;;;;;37.78;28.23;;;8.70;99.90;;;;;;5045104;28;20029;-90
2024/03/06 10:03:43;;;;;;;36.55;26.75;;;8.80;99.90;;;;;;5045107;28;20036;-91
2024/03/06 10:06:09;;;;;;;41.13;29.40;;;8.80;99.90;;;;;;5026568;28;20045;-91
2024/03/06 10:08:37;;;;;;;40.47;28.05;;;8.80;99.90;;;;;;5010889;28;20048;-92
2024/03/06 10:11:03;;;;;;;44.10;30.15;;;8.80;99.90;;;;;;5001120;28;20050;-91
2024/03/06 10:13:29;;;;;;;42.78;29.80;;;8.80;99.90;;;;;;4983795;28;20076;-90
2024/03/06 10:16:02;;;;;;;43.85;30.08;;;8.80;99.90;;;;;;5015200;28;20094;-89
2024/03/06 10:18:29;;;;;;;38.00;28.27;;;8.80;99.90;;;;;;5012858;28;20494;-89
2024/03/06 10:20:56;;;;;;;40.00;29.50;;;8.70;99.90;;;;;;5022371;28;20057;-90
2024/03/06 10:23:22;;;;;;;39.78;29.15;;;8.80;99.90;;;;;;5004025;28;20382;-88
2024/03/06 10:25:57;;;;;;;40.28;29.42;;;8.80;99.90;;;;;;4985066;28;20033;-89
2024/03/06 10:28:24;;;;;;;43.55;30.45;;;8.80;99.90;;;;;;4985116;28;20393;-90
2024/03/06 10:30:51;;;;;;;44.45;30.40;;;8.80;99.90;;;;;;5015433;28;20018;-89
2024/03/06 10:33:21;;;;;;;47.80;31.58;;;8.80;99.90;;;;;;5014191;28;20105;-89
2024/03/06 10:35:51;;;;;;;47.33;31.35;;;8.80;99.90;;;;;;5014285;28;20128;-90
2024/03/06 10:38:20;;;;;;;42.83;29.33;;;8.80;99.90;;;;;;4969754;28;20068;-90
2024/03/06 10:40:46;;;;;;;43.22;29.25;;;8.90;99.90;;;;;;4996531;28;20125;-91
2024/03/06 10:43:12;;;;;;;41.65;29.98;;;9.00;99.90;;;;;;5002216;28;20033;-90
2024/03/06 10:45:46;;;;;;;41.70;30.48;;;9.00;99.90;;;;;;5018075;28;20026;-92
2024/03/06 10:48:14;;;;;;;41.65;29.38;;;9.10;99.90;;;;;;5026681;28;20049;-91
2024/03/06 10:50:44;;;;;;;43.40;29.73;;;9.20;99.90;;;;;;5023266;28;20014;-92
2024/03/06 10:53:12;;;;;;;49.55;33.95;;;9.20;99.90;;;;;;5000776;28;20470;-94
2024/03/06 10:55:39;;;;;;;45.30;32.35;;;9.30;99.90;;;;;;5013982;28;20022;-91
2024/03/06 10:58:08;;;;;;;48.63;32.70;;;9.30;99.90;;;;;;5016906;28;20041;-91
2024/03/06 11:00:49;;;;;;;46.65;31.38;;;9.20;99.90;;;;;;4986697;28;20038;-92
2024/03/06 11:03:15;;;;;;;49.08;32.03;;;9.10;99.90;;;;;;4981304;28;20125;-93
2024/03/06 11:05:42;;;;;;;53.65;35.63;;;8.90;99.90;;;;;;5018082;28;20026;-90
2024/03/06 11:08:13;;;;;;;53.75;34.20;;;8.90;99.90;;;;;;4999544;28;20029;-93
2024/03/06 11:10:41;;;;;;;50.13;34.20;;;8.90;99.90;;;;;;5019556;28;20018;-89
2024/03/06 11:13:32;;;;;;;50.38;33.63;;;8.90;99.90;;;;;;5023105;28;20101;-93
2024/03/06 11:16:01;;;;;;;54.95;35.00;;;9.00;99.90;;;;;;5021062;28;20021;-91
2024/03/06 11:18:29;;;;;;;54.15;35.38;;;9.00;99.90;;;;;;5012785;28;20524;-91
2024/03/06 11:21:05;;;;;;;58.92;37.42;;;9.10;99.90;;;;;;5131168;23;20081;-91
2024/03/06 11:23:33;;;;;;;62.35;39.90;;;9.10;99.90;;;;;;5067902;28;20084;-94
2024/03/06 11:26:06;;;;;;;59.75;37.53;;;9.20;99.90;;;;;;5061408;28;20025;-85
2024/03/06 11:28:41;;;;;;;58.65;36.67;;;9.20;99.90;;;;;;5059551;28;20081;-85
2024/03/06 11:31:13;;;;;;;54.92;36.42;;;9.30;99.90;;;;;;5044275;28;20026;-91
2024/03/06 11:33:41;;;;;;;55.60;36.15;;;9.30;99.90;;;;;;5075358;28;20017;-91
2024/03/06 11:36:25;;;;;;;58.65;36.25;;;9.30;99.90;;;;;;5055582;28;20040;-90
2024/03/06 11:39:03;;;;;;;55.70;35.53;;;9.20;99.90;;;;;;5031023;28;20036;-91
2024/03/06 11:41:47;;;;;;;48.17;33.13;;;9.20;99.90;;;;;;5061128;28;20029;-90
2024/03/06 11:44:15;;;;;;;51.85;33.75;;;9.30;99.90;;;;;;5034440;28;20083;-91
2024/03/06 11:46:48;;;;;;;48.80;33.00;;;9.40;99.90;;;;;;5033388;28;20025;-92
2024/03/06 11:49:25;;;;;;;53.42;33.80;;;9.50;99.90;;;;;;5024697;28;20420;-94
2024/03/06 11:51:55;;;;;;;54.20;34.90;;;9.50;99.90;;;;;;5035840;28;20022;-89
2024/03/06 11:54:25;;;;;;;51.83;34.17;;;9.60;99.90;;;;;;5034525;28;20030;-91
2024/03/06 11:56:56;;;;;;;53.50;35.08;;;9.60;99.90;;;;;;5033632;28;20021;-90
2024/03/06 11:59:27;;;;;;;55.30;36.22;;;9.70;99.90;;;;;;5037568;28;20025;-90
2024/03/06 12:01:56;;;;;;;56.60;35.90;;;9.80;99.90;;;;;;5033894;28;20014;-93
2024/03/06 12:04:22;;;;;;;52.25;34.65;;;9.80;99.90;;;;;;5043043;28;20413;-91
2024/03/06 12:06:48;;;;;;;50.00;32.65;;;9.80;99.90;;;;;;5038993;28;20445;-91
2024/03/06 12:09:15;;;;;;;50.03;33.90;;;9.80;99.90;;;;;;5034804;28;20143;-91
2024/03/06 12:11:43;;;;;;;51.35;34.03;;;9.80;99.90;;;;;;5033188;28;20078;-90
2024/03/06 12:14:14;;;;;;;47.78;32.42;;;9.80;99.90;;;;;;5040037;28;20089;-92
2024/03/06 12:16:40;;;;;;;46.47;31.88;;;9.80;99.90;;;;;;5044250;28;20028;-89
2024/03/06 12:19:06;;;;;;;46.30;32.30;;;9.70;99.90;;;;;;5042636;28;20033;-90
2024/03/06 12:21:33;;;;;;;45.95;32.13;;;9.60;99.90;;;;;;5020318;28;20496;-91
2024/03/06 12:24:05;;;;;;;54.13;34.63;;;9.60;99.90;;;;;;5036605;28;20026;-91
2024/03/06 12:26:33;;;;;;;52.38;34.33;;;9.60;99.90;;;;;;5037285;28;20469;-90
2024/03/06 12:29:10;;;;;;;46.42;31.00;;;9.60;99.90;;;;;;5036903;28;20018;-90
2024/03/06 12:31:41;;;;;;;46.35;31.10;;;9.70;99.90;;;;;;5038329;28;20416;-90
2024/03/06 12:34:07;;;;;;;45.25;30.10;;;9.80;99.90;;;;;;5037476;28;20017;-91